EZY21VB EGPH-EGGD
Flight info
| Callsign | EZY21VB |
|---|---|
| Flight time | 1h 2m |
| Altitude | 31000 |
| Route | GOSAM P600 FENIK L612 NAVSO DCT ADZOP DCT EGTOC DCT NOKIN N862 KARNO/N0408F300 DCT ALHUP DCT LUCSA/N0362F230 N862 WEVBE |
| Aircraft | A320/M-SDE2E3FGHIRWXY/LB1 |
Departure
| Time | 2026-04-26 19:18 |
|---|---|
| Airport | Edinburgh Airport (EGPH) |
Arrival
| Time | 2026-04-26 20:20 |
|---|---|
| Airport | Bristol Airport (EGGD) |
| Time | Latitude | Longitude | Altitude | Speed | Heading |
|---|---|---|---|---|---|
| 2026-04-26 18:56 | 55.94703 | -3.36600 | 107 ft | 0 kts | 88° |
| 2026-04-26 19:09 | 55.94703 | -3.36642 | 106 ft | 4 kts | 89° |
| 2026-04-26 19:09 | 55.94702 | -3.36680 | 106 ft | 4 kts | 89° |
| 2026-04-26 19:10 | 55.94702 | -3.36727 | 106 ft | 3 kts | 90° |
| 2026-04-26 19:10 | 55.94701 | -3.36758 | 105 ft | 4 kts | 17° |
| 2026-04-26 19:10 | 55.94691 | -3.36749 | 104 ft | 4 kts | 330° |
| 2026-04-26 19:10 | 55.94669 | -3.36735 | 105 ft | 4 kts | 360° |
| 2026-04-26 19:11 | 55.94642 | -3.36735 | 106 ft | 4 kts | 360° |
| 2026-04-26 19:11 | 55.94632 | -3.36735 | 107 ft | 0 kts | 359° |
| 2026-04-26 19:13 | 55.94681 | -3.36735 | 106 ft | 18 kts | 1° |
| 2026-04-26 19:13 | 55.94851 | -3.36781 | 105 ft | 26 kts | 355° |
| 2026-04-26 19:13 | 55.94979 | -3.36734 | 107 ft | 5 kts | 68° |
| 2026-04-26 19:13 | 55.94984 | -3.36722 | 105 ft | 0 kts | 58° |
| 2026-04-26 19:14 | 55.94993 | -3.36695 | 106 ft | 5 kts | 58° |
| 2026-04-26 19:14 | 55.95019 | -3.36618 | 106 ft | 16 kts | 59° |
| 2026-04-26 19:14 | 55.95046 | -3.36384 | 106 ft | 15 kts | 139° |
| 2026-04-26 19:14 | 55.95012 | -3.36418 | 106 ft | 18 kts | 225° |
| 2026-04-26 19:15 | 55.94904 | -3.36790 | 104 ft | 11 kts | 286° |
| 2026-04-26 19:15 | 55.94886 | -3.37013 | 104 ft | 28 kts | 239° |
| 2026-04-26 19:15 | 55.94785 | -3.37311 | 106 ft | 28 kts | 239° |
| 2026-04-26 19:15 | 55.94687 | -3.37599 | 111 ft | 27 kts | 239° |
| 2026-04-26 19:16 | 55.94590 | -3.37885 | 112 ft | 28 kts | 239° |
| 2026-04-26 19:16 | 55.94488 | -3.38187 | 110 ft | 29 kts | 239° |
| 2026-04-26 19:16 | 55.94387 | -3.38485 | 115 ft | 28 kts | 239° |
| 2026-04-26 19:16 | 55.94290 | -3.38770 | 117 ft | 20 kts | 239° |
| 2026-04-26 19:17 | 55.94347 | -3.38931 | 119 ft | 18 kts | 326° |
| 2026-04-26 19:17 | 55.94448 | -3.38868 | 117 ft | 21 kts | 58° |
| 2026-04-26 19:17 | 55.94629 | -3.38335 | 112 ft | 86 kts | 59° |
| 2026-04-26 19:17 | 55.95046 | -3.37111 | 126 ft | 139 kts | 59° |
| 2026-04-26 19:18 | 55.95532 | -3.35638 | 720 ft | 145 kts | 59° |
| 2026-04-26 19:18 | 55.96137 | -3.34073 | 1293 ft | 160 kts | 42° |
| 2026-04-26 19:18 | 55.97014 | -3.32657 | 1878 ft | 182 kts | 39° |
| 2026-04-26 19:18 | 55.98053 | -3.31005 | 2383 ft | 215 kts | 39° |
| 2026-04-26 19:19 | 55.99243 | -3.29144 | 3105 ft | 240 kts | 35° |
| 2026-04-26 19:19 | 56.00836 | -3.28014 | 3852 ft | 259 kts | 359° |
| 2026-04-26 19:19 | 56.02557 | -3.28849 | 4947 ft | 261 kts | 323° |
| 2026-04-26 19:19 | 56.03684 | -3.31331 | 6168 ft | 261 kts | 288° |
| 2026-04-26 19:20 | 56.03841 | -3.34541 | 7447 ft | 263 kts | 261° |
| 2026-04-26 19:20 | 56.03575 | -3.36643 | 8314 ft | 264 kts | 253° |
| 2026-04-26 19:20 | 56.02740 | -3.40821 | 10090 ft | 269 kts | 249° |
| 2026-04-26 19:20 | 56.02005 | -3.43991 | 10942 ft | 288 kts | 245° |
| 2026-04-26 19:21 | 56.01171 | -3.47394 | 11609 ft | 308 kts | 248° |
| 2026-04-26 19:21 | 56.00444 | -3.51053 | 12581 ft | 316 kts | 254° |
| 2026-04-26 19:21 | 55.99893 | -3.54888 | 13654 ft | 321 kts | 257° |
| 2026-04-26 19:21 | 55.99416 | -3.58818 | 14661 ft | 326 kts | 258° |
| 2026-04-26 19:22 | 55.98944 | -3.62801 | 15637 ft | 330 kts | 258° |
| 2026-04-26 19:22 | 55.98443 | -3.66811 | 16592 ft | 333 kts | 258° |
| 2026-04-26 19:22 | 55.97906 | -3.70860 | 17523 ft | 336 kts | 257° |
| 2026-04-26 19:22 | 55.97340 | -3.74931 | 18457 ft | 340 kts | 257° |
| 2026-04-26 19:23 | 55.96753 | -3.79033 | 19256 ft | 343 kts | 257° |
| 2026-04-26 19:23 | 55.96152 | -3.83174 | 20047 ft | 346 kts | 256° |
| 2026-04-26 19:23 | 55.95540 | -3.87346 | 20828 ft | 349 kts | 256° |
| 2026-04-26 19:23 | 55.94920 | -3.91553 | 21581 ft | 352 kts | 256° |
| 2026-04-26 19:24 | 55.94293 | -3.95796 | 22302 ft | 355 kts | 255° |
| 2026-04-26 19:24 | 55.93388 | -3.99912 | 23020 ft | 359 kts | 243° |
| 2026-04-26 19:24 | 55.89964 | -4.06520 | 24234 ft | 374 kts | 218° |
| 2026-04-26 19:25 | 55.87817 | -4.09140 | 24748 ft | 375 kts | 218° |
| 2026-04-26 19:25 | 55.87088 | -4.10029 | 24920 ft | 376 kts | 218° |
| 2026-04-26 19:25 | 55.83492 | -4.14415 | 25703 ft | 378 kts | 218° |
| 2026-04-26 19:25 | 55.81312 | -4.17068 | 26149 ft | 380 kts | 218° |
| 2026-04-26 19:26 | 55.79128 | -4.19733 | 26575 ft | 381 kts | 218° |
| 2026-04-26 19:26 | 55.76882 | -4.22270 | 26987 ft | 386 kts | 211° |
| 2026-04-26 19:26 | 55.74367 | -4.24069 | 27389 ft | 394 kts | 200° |
| 2026-04-26 19:26 | 55.71636 | -4.24893 | 27785 ft | 404 kts | 188° |
| 2026-04-26 19:27 | 55.68801 | -4.24628 | 28146 ft | 414 kts | 175° |
| 2026-04-26 19:27 | 55.65989 | -4.23276 | 28521 ft | 423 kts | 165° |
| 2026-04-26 19:27 | 55.63282 | -4.21118 | 28905 ft | 431 kts | 156° |
| 2026-04-26 19:27 | 55.60655 | -4.18525 | 29278 ft | 433 kts | 156° |
| 2026-04-26 19:28 | 55.58015 | -4.15929 | 29638 ft | 435 kts | 156° |
| 2026-04-26 19:28 | 55.55365 | -4.13334 | 29993 ft | 436 kts | 157° |
| 2026-04-26 19:28 | 55.52700 | -4.10740 | 30347 ft | 438 kts | 157° |
| 2026-04-26 19:28 | 55.50026 | -4.08142 | 30624 ft | 440 kts | 157° |
| 2026-04-26 19:29 | 55.47339 | -4.05535 | 30874 ft | 442 kts | 157° |
| 2026-04-26 19:29 | 55.44640 | -4.02917 | 31094 ft | 443 kts | 158° |
| 2026-04-26 19:29 | 55.42846 | -4.01180 | 31210 ft | 446 kts | 157° |
| 2026-04-26 19:29 | 55.39178 | -3.97630 | 31268 ft | 455 kts | 157° |
| 2026-04-26 19:30 | 55.34658 | -3.93234 | 31265 ft | 432 kts | 158° |
| 2026-04-26 19:30 | 55.32019 | -3.91075 | 31270 ft | 407 kts | 169° |
| 2026-04-26 19:30 | 55.30194 | -3.90146 | 31272 ft | 401 kts | 171° |
| 2026-04-26 19:31 | 55.23981 | -3.87122 | 31269 ft | 398 kts | 171° |
| 2026-04-26 19:31 | 55.18647 | -3.84569 | 31262 ft | 397 kts | 171° |
| 2026-04-26 19:32 | 55.13277 | -3.82010 | 31272 ft | 397 kts | 171° |
| 2026-04-26 19:32 | 55.07983 | -3.79473 | 31271 ft | 397 kts | 171° |
| 2026-04-26 19:33 | 55.02652 | -3.76921 | 31266 ft | 397 kts | 171° |
| 2026-04-26 19:33 | 54.97331 | -3.74378 | 31271 ft | 397 kts | 171° |
| 2026-04-26 19:34 | 54.92005 | -3.71842 | 31232 ft | 396 kts | 170° |
| 2026-04-26 19:34 | 54.86686 | -3.69322 | 31245 ft | 396 kts | 171° |
| 2026-04-26 19:35 | 54.81368 | -3.66814 | 31248 ft | 396 kts | 171° |
| 2026-04-26 19:35 | 54.76046 | -3.64311 | 31257 ft | 396 kts | 171° |
| 2026-04-26 19:36 | 54.71590 | -3.62211 | 31259 ft | 396 kts | 170° |
| 2026-04-26 19:36 | 54.65407 | -3.59305 | 31244 ft | 396 kts | 170° |
| 2026-04-26 19:37 | 54.60084 | -3.56811 | 31255 ft | 397 kts | 170° |
| 2026-04-26 19:37 | 54.54752 | -3.54329 | 31261 ft | 397 kts | 170° |
| 2026-04-26 19:38 | 54.49421 | -3.51851 | 31265 ft | 397 kts | 170° |
| 2026-04-26 19:38 | 54.44086 | -3.49382 | 31242 ft | 397 kts | 170° |
| 2026-04-26 19:39 | 54.38758 | -3.46920 | 31258 ft | 396 kts | 170° |
| 2026-04-26 19:39 | 54.33437 | -3.44470 | 31265 ft | 396 kts | 170° |
| 2026-04-26 19:40 | 54.28120 | -3.42014 | 31269 ft | 396 kts | 170° |
| 2026-04-26 19:40 | 54.22806 | -3.39570 | 31271 ft | 395 kts | 170° |
| 2026-04-26 19:41 | 54.17493 | -3.37134 | 31252 ft | 395 kts | 169° |
| 2026-04-26 19:41 | 54.13040 | -3.35105 | 31259 ft | 395 kts | 169° |
| 2026-04-26 19:42 | 54.06869 | -3.32293 | 31266 ft | 395 kts | 169° |
| 2026-04-26 19:42 | 54.01555 | -3.29883 | 31266 ft | 395 kts | 169° |
| 2026-04-26 19:43 | 53.96241 | -3.27471 | 31265 ft | 395 kts | 169° |
| 2026-04-26 19:43 | 53.90930 | -3.25070 | 31252 ft | 395 kts | 169° |
| 2026-04-26 19:44 | 53.85614 | -3.22677 | 31252 ft | 395 kts | 169° |
| 2026-04-26 19:44 | 53.80257 | -3.20269 | 31255 ft | 396 kts | 169° |
| 2026-04-26 19:45 | 53.74929 | -3.17883 | 31258 ft | 396 kts | 169° |
| 2026-04-26 19:45 | 53.69605 | -3.15511 | 31248 ft | 396 kts | 169° |
| 2026-04-26 19:46 | 53.64284 | -3.13144 | 31255 ft | 395 kts | 169° |
| 2026-04-26 19:46 | 53.58969 | -3.10776 | 31259 ft | 395 kts | 170° |
| 2026-04-26 19:47 | 53.54558 | -3.08823 | 31260 ft | 395 kts | 170° |
| 2026-04-26 19:47 | 53.48343 | -3.06065 | 31266 ft | 395 kts | 170° |
| 2026-04-26 19:48 | 53.43023 | -3.03718 | 31260 ft | 395 kts | 170° |
| 2026-04-26 19:48 | 53.37702 | -3.01389 | 31259 ft | 395 kts | 170° |
| 2026-04-26 19:49 | 53.32387 | -2.99057 | 31260 ft | 395 kts | 170° |
| 2026-04-26 19:49 | 53.27068 | -2.96723 | 31260 ft | 395 kts | 170° |
| 2026-04-26 19:50 | 53.21747 | -2.94399 | 31262 ft | 395 kts | 170° |
| 2026-04-26 19:50 | 53.16430 | -2.92085 | 31266 ft | 395 kts | 170° |
| 2026-04-26 19:51 | 53.11117 | -2.89776 | 31271 ft | 394 kts | 170° |
| 2026-04-26 19:51 | 53.05766 | -2.88453 | 31274 ft | 385 kts | 186° |
| 2026-04-26 19:52 | 53.00430 | -2.88914 | 31278 ft | 384 kts | 187° |
| 2026-04-26 19:52 | 52.95101 | -2.89366 | 31264 ft | 383 kts | 187° |
| 2026-04-26 19:53 | 52.92405 | -2.89592 | 30960 ft | 392 kts | 186° |
| 2026-04-26 19:53 | 52.89670 | -2.89832 | 30322 ft | 392 kts | 188° |
| 2026-04-26 19:53 | 52.86977 | -2.90402 | 29618 ft | 390 kts | 191° |
| 2026-04-26 19:53 | 52.84291 | -2.91035 | 28940 ft | 389 kts | 191° |
| 2026-04-26 19:54 | 52.81614 | -2.91668 | 28337 ft | 387 kts | 191° |
| 2026-04-26 19:54 | 52.78954 | -2.92294 | 27650 ft | 387 kts | 191° |
| 2026-04-26 19:54 | 52.76306 | -2.92916 | 27225 ft | 381 kts | 191° |
| 2026-04-26 19:54 | 52.73706 | -2.93522 | 26353 ft | 376 kts | 191° |
| 2026-04-26 19:55 | 52.71142 | -2.94091 | 25627 ft | 369 kts | 187° |
| 2026-04-26 19:55 | 52.68577 | -2.94328 | 25001 ft | 370 kts | 186° |
| 2026-04-26 19:55 | 52.66000 | -2.94549 | 24360 ft | 373 kts | 186° |
| 2026-04-26 19:55 | 52.63398 | -2.94769 | 23797 ft | 374 kts | 186° |
| 2026-04-26 19:56 | 52.60818 | -2.94984 | 23339 ft | 370 kts | 186° |
| 2026-04-26 19:56 | 52.58260 | -2.95193 | 22838 ft | 367 kts | 186° |
| 2026-04-26 19:56 | 52.55719 | -2.95400 | 22402 ft | 363 kts | 186° |
| 2026-04-26 19:56 | 52.53217 | -2.95604 | 22053 ft | 357 kts | 186° |
| 2026-04-26 19:57 | 52.50754 | -2.95804 | 21700 ft | 351 kts | 186° |
| 2026-04-26 19:57 | 52.48334 | -2.96000 | 21347 ft | 346 kts | 186° |
| 2026-04-26 19:57 | 52.45949 | -2.96194 | 21020 ft | 340 kts | 186° |
| 2026-04-26 19:57 | 52.43603 | -2.96387 | 20692 ft | 335 kts | 186° |
| 2026-04-26 19:58 | 52.41288 | -2.96578 | 20368 ft | 331 kts | 186° |
| 2026-04-26 19:58 | 52.39002 | -2.96768 | 20046 ft | 328 kts | 186° |
| 2026-04-26 19:58 | 52.36729 | -2.96955 | 19724 ft | 326 kts | 186° |
| 2026-04-26 19:58 | 52.34471 | -2.97138 | 19408 ft | 324 kts | 186° |
| 2026-04-26 19:59 | 52.32223 | -2.97321 | 19088 ft | 323 kts | 186° |
| 2026-04-26 19:59 | 52.29984 | -2.97506 | 18773 ft | 321 kts | 186° |
| 2026-04-26 19:59 | 52.27758 | -2.97693 | 18439 ft | 320 kts | 186° |
| 2026-04-26 19:59 | 52.25542 | -2.97880 | 18110 ft | 318 kts | 186° |
| 2026-04-26 20:00 | 52.23339 | -2.98063 | 17792 ft | 316 kts | 186° |
| 2026-04-26 20:00 | 52.21149 | -2.98241 | 17490 ft | 314 kts | 186° |
| 2026-04-26 20:00 | 52.18967 | -2.98416 | 17179 ft | 313 kts | 186° |
| 2026-04-26 20:00 | 52.16800 | -2.98593 | 16877 ft | 311 kts | 186° |
| 2026-04-26 20:01 | 52.14642 | -2.98771 | 16567 ft | 310 kts | 186° |
| 2026-04-26 20:01 | 52.12493 | -2.98942 | 16260 ft | 309 kts | 186° |
| 2026-04-26 20:01 | 52.10354 | -2.99109 | 16152 ft | 308 kts | 186° |
| 2026-04-26 20:01 | 52.08214 | -2.99278 | 16041 ft | 308 kts | 186° |
| 2026-04-26 20:02 | 52.06077 | -2.99446 | 15919 ft | 307 kts | 186° |
| 2026-04-26 20:02 | 52.03942 | -2.99615 | 15798 ft | 307 kts | 186° |
| 2026-04-26 20:02 | 52.01816 | -2.99783 | 15679 ft | 306 kts | 186° |
| 2026-04-26 20:02 | 52.00406 | -2.99895 | 15588 ft | 306 kts | 186° |
| 2026-04-26 20:03 | 51.97566 | -3.00124 | 15435 ft | 305 kts | 186° |
| 2026-04-26 20:03 | 51.95439 | -3.00100 | 15315 ft | 308 kts | 176° |
| 2026-04-26 20:03 | 51.93344 | -2.99303 | 15046 ft | 312 kts | 163° |
| 2026-04-26 20:03 | 51.91314 | -2.98078 | 14732 ft | 311 kts | 163° |
| 2026-04-26 20:04 | 51.89291 | -2.96854 | 14428 ft | 310 kts | 163° |
| 2026-04-26 20:04 | 51.87278 | -2.95638 | 14125 ft | 309 kts | 163° |
| 2026-04-26 20:04 | 51.85271 | -2.94429 | 13806 ft | 307 kts | 163° |
| 2026-04-26 20:04 | 51.83272 | -2.93229 | 13488 ft | 306 kts | 163° |
| 2026-04-26 20:05 | 51.81285 | -2.92040 | 13194 ft | 304 kts | 163° |
| 2026-04-26 20:05 | 51.79308 | -2.90863 | 12893 ft | 302 kts | 163° |
| 2026-04-26 20:05 | 51.77346 | -2.89700 | 12598 ft | 299 kts | 163° |
| 2026-04-26 20:05 | 51.75397 | -2.88544 | 12320 ft | 297 kts | 162° |
| 2026-04-26 20:06 | 51.73461 | -2.87393 | 12019 ft | 296 kts | 162° |
| 2026-04-26 20:06 | 51.71532 | -2.86248 | 11731 ft | 295 kts | 163° |
| 2026-04-26 20:06 | 51.69576 | -2.85339 | 11437 ft | 292 kts | 167° |
| 2026-04-26 20:06 | 51.67619 | -2.84495 | 11141 ft | 291 kts | 167° |
| 2026-04-26 20:07 | 51.65668 | -2.83650 | 10848 ft | 290 kts | 167° |
| 2026-04-26 20:07 | 51.63728 | -2.82806 | 10557 ft | 289 kts | 167° |
| 2026-04-26 20:07 | 51.61793 | -2.81964 | 10265 ft | 288 kts | 167° |
| 2026-04-26 20:07 | 51.59863 | -2.81123 | 9963 ft | 287 kts | 166° |
| 2026-04-26 20:08 | 51.57941 | -2.80286 | 9652 ft | 286 kts | 166° |
| 2026-04-26 20:08 | 51.56023 | -2.79453 | 9363 ft | 285 kts | 166° |
| 2026-04-26 20:08 | 51.54113 | -2.78624 | 9082 ft | 284 kts | 166° |
| 2026-04-26 20:08 | 51.52825 | -2.78066 | 8884 ft | 283 kts | 166° |
| 2026-04-26 20:09 | 51.50924 | -2.77248 | 8600 ft | 283 kts | 166° |
| 2026-04-26 20:09 | 51.49050 | -2.76441 | 8318 ft | 282 kts | 166° |
| 2026-04-26 20:09 | 51.47161 | -2.75628 | 8034 ft | 281 kts | 166° |
| 2026-04-26 20:09 | 51.45255 | -2.74808 | 7745 ft | 280 kts | 166° |
| 2026-04-26 20:10 | 51.43387 | -2.74007 | 7511 ft | 273 kts | 165° |
| 2026-04-26 20:10 | 51.41584 | -2.73327 | 7415 ft | 259 kts | 176° |
| 2026-04-26 20:10 | 51.39877 | -2.73742 | 7334 ft | 243 kts | 206° |
| 2026-04-26 20:10 | 51.38587 | -2.75335 | 7161 ft | 233 kts | 233° |
| 2026-04-26 20:11 | 51.37930 | -2.77726 | 6624 ft | 242 kts | 263° |
| 2026-04-26 20:11 | 51.37833 | -2.80439 | 6122 ft | 247 kts | 268° |
| 2026-04-26 20:11 | 51.37752 | -2.83218 | 5590 ft | 254 kts | 267° |
| 2026-04-26 20:12 | 51.37566 | -2.88825 | 4765 ft | 247 kts | 267° |
| 2026-04-26 20:12 | 51.37471 | -2.91557 | 4189 ft | 245 kts | 267° |
| 2026-04-26 20:12 | 51.37376 | -2.94282 | 3615 ft | 245 kts | 267° |
| 2026-04-26 20:12 | 51.37283 | -2.96972 | 3264 ft | 235 kts | 267° |
| 2026-04-26 20:13 | 51.37199 | -2.99461 | 3208 ft | 215 kts | 267° |
| 2026-04-26 20:13 | 51.37120 | -3.01791 | 3162 ft | 206 kts | 267° |
| 2026-04-26 20:13 | 51.36839 | -3.03992 | 3118 ft | 197 kts | 239° |
| 2026-04-26 20:13 | 51.35932 | -3.05397 | 3098 ft | 174 kts | 204° |
| 2026-04-26 20:14 | 51.34840 | -3.05725 | 3057 ft | 153 kts | 172° |
| 2026-04-26 20:14 | 51.33879 | -3.05198 | 3014 ft | 144 kts | 144° |
| 2026-04-26 20:14 | 51.33206 | -3.04069 | 2983 ft | 140 kts | 118° |
| 2026-04-26 20:14 | 51.32931 | -3.02607 | 2952 ft | 138 kts | 92° |
| 2026-04-26 20:15 | 51.33092 | -3.01104 | 2915 ft | 138 kts | 67° |
| 2026-04-26 20:15 | 51.33586 | -2.99782 | 2880 ft | 139 kts | 58° |
| 2026-04-26 20:15 | 51.34106 | -2.98483 | 2839 ft | 139 kts | 58° |
| 2026-04-26 20:15 | 51.34626 | -2.97182 | 2798 ft | 139 kts | 58° |
| 2026-04-26 20:16 | 51.35147 | -2.95881 | 2755 ft | 139 kts | 58° |
| 2026-04-26 20:16 | 51.35668 | -2.94582 | 2716 ft | 139 kts | 58° |
| 2026-04-26 20:16 | 51.36188 | -2.93283 | 2671 ft | 139 kts | 58° |
| 2026-04-26 20:16 | 51.36708 | -2.91983 | 2625 ft | 139 kts | 58° |
| 2026-04-26 20:17 | 51.37228 | -2.90682 | 2585 ft | 139 kts | 59° |
| 2026-04-26 20:17 | 51.37546 | -2.89245 | 2520 ft | 138 kts | 88° |
| 2026-04-26 20:17 | 51.37606 | -2.87709 | 2401 ft | 138 kts | 85° |
| 2026-04-26 20:17 | 51.37660 | -2.86675 | 2294 ft | 138 kts | 86° |
| 2026-04-26 20:18 | 51.37754 | -2.84647 | 2060 ft | 138 kts | 86° |
| 2026-04-26 20:18 | 51.37819 | -2.83121 | 1876 ft | 137 kts | 87° |
| 2026-04-26 20:18 | 51.37882 | -2.81595 | 1690 ft | 138 kts | 87° |
| 2026-04-26 20:18 | 51.37944 | -2.80069 | 1504 ft | 138 kts | 87° |
| 2026-04-26 20:19 | 51.38005 | -2.78541 | 1311 ft | 138 kts | 88° |
| 2026-04-26 20:19 | 51.38073 | -2.77009 | 1090 ft | 138 kts | 86° |
| 2026-04-26 20:19 | 51.38130 | -2.75480 | 888 ft | 137 kts | 88° |
| 2026-04-26 20:19 | 51.38190 | -2.73956 | 736 ft | 137 kts | 88° |
| 2026-04-26 20:20 | 51.38246 | -2.72473 | 614 ft | 121 kts | 86° |
| 2026-04-26 20:20 | 51.38287 | -2.71402 | 613 ft | 72 kts | 86° |
| 2026-04-26 20:20 | 51.38306 | -2.70879 | 620 ft | 26 kts | 87° |
| 2026-04-26 20:20 | 51.38367 | -2.70748 | 620 ft | 7 kts | 22° |
| 2026-04-26 20:21 | 51.38459 | -2.70724 | 612 ft | 6 kts | 329° |
| 2026-04-26 20:21 | 51.38465 | -2.70914 | 612 ft | 26 kts | 266° |
| 2026-04-26 20:21 | 51.38469 | -2.71128 | 625 ft | 4 kts | 326° |
| 2026-04-26 20:21 | 51.38529 | -2.71144 | 618 ft | 3 kts | 356° |
| 2026-04-26 20:22 | 51.38553 | -2.71147 | 619 ft | 0 kts | 356° |